Accueil
METAR-TAF:

METAR-TAF

Aéroports :

Rheine, Allemagne

latitude: 52-18N, longitude: 007-23E, altitude: 40 m

Observation

Le bulletin a été fait il y a 15 minutes, à 22:20 UTC
Vent 3 kt de sud/sud-ouest
Température 2°C
Humidité 93%
Pression 1014 hPa

METAR: ETHE 272220Z AUTO 20003KT //// // ////// 02/01 Q1014 ///

Heure: 00:35 (22:35 UTC)

Prévision

Le bulletin a été fait il y a 15 heures et 20 minutes, à 07:15 UTC
Prévision valable du 27 à 08 UTC au 27 à 17 UTC
Vent 4 kt de ouest
Visibilité 10 km ou plus
Quelques nuages à une hauteur de 5000 ft
Nuages épars à une hauteur de 10000 ft
Evoluant progressivement
du 27 à 10 UTC au 27 à 13 UTC
Vent 8 kt de ouest/sud-ouest
Visibilité 10 km ou plus
Quelques nuages à une hauteur de 3000 ft
Nuages fragmentés à une hauteur de 6000 ft

TAF: ETHE 270715Z 2708/2717 27004KT 9999 NSW FEW050 SCT100 BECMG 2710/2713 25008KT 9999 NSW FEW030 BKN060

Observations et prévisions météorologiques de plus de 4000 aéroports (messages METAR et TAF).

Les stations disponibles sont représentées par des disques jaunes et rouges sur la carte.

Passer la souris dessus pour voir le nom de la station.

Cliquer dessus pour voir les observations et prévisions météorologiques.

Pour changer de carte: cliquez sur les boutons verts avec une croix noire pour zoomer, sur le bouton vert avec un tiret pour effectuer un zoom arrière, ou sur les flèches vertes pour les cartes adjacentes.


METAR-TAF: